createdAt,value
2022-08-05T00:00:30.429Z,101000.94
2022-08-05T00:02:32.257Z,100986.91
2022-08-05T00:04:34.103Z,100992.56
2022-08-05T00:06:36.343Z,100997.75
2022-08-05T00:08:38.939Z,100995.66
2022-08-05T00:10:41.986Z,100993.56
2022-08-05T00:12:56.170Z,100982.13
2022-08-05T00:14:58.602Z,100993.13
2022-08-05T00:17:01.706Z,100990.69
2022-08-05T00:19:04.731Z,100996.84
2022-08-05T00:21:08.509Z,100993.69
2022-08-05T00:23:12.800Z,100983.59
2022-08-05T00:25:15.278Z,100992.09
2022-08-05T00:27:18.153Z,100972.22
2022-08-05T00:29:22.702Z,100988.56
2022-08-05T00:31:54.456Z,100955.56
2022-08-05T00:34:56.561Z,100983.19
2022-08-05T00:36:16.473Z,100983.13
2022-08-05T00:38:33.913Z,100949.13
2022-08-05T00:40:53.135Z,100994.41
2022-08-05T00:42:57.305Z,100993.88
2022-08-05T00:44:59.395Z,100991.00
2022-08-05T00:47:01.837Z,100960.91
2022-08-05T00:49:06.082Z,100985.19
2022-08-05T00:51:51.807Z,100974.69
2022-08-05T00:54:00.032Z,100951.72
2022-08-05T00:55:53.432Z,100981.72
2022-08-05T00:57:58.254Z,100976.75
2022-08-05T01:00:00.950Z,100962.75
2022-08-05T01:02:02.677Z,100981.22
2022-08-05T01:04:13.636Z,100967.97
2022-08-05T01:06:16.161Z,100977.56
2022-08-05T01:08:41.774Z,100973.19
2022-08-05T01:10:52.947Z,100978.31
2022-08-05T01:13:03.277Z,100963.81
2022-08-05T01:15:35.914Z,100978.75
2022-08-05T01:17:43.990Z,100972.50
2022-08-05T01:20:00.784Z,100963.53
2022-08-05T01:22:38.195Z,100976.47
2022-08-05T01:24:50.781Z,100969.81
2022-08-05T01:27:17.622Z,100972.78
2022-08-05T01:29:38.243Z,100972.25
2022-08-05T01:31:59.447Z,100951.81
2022-08-05T01:34:07.020Z,100968.25
2022-08-05T01:36:16.298Z,100935.44
2022-08-05T01:38:27.167Z,100969.19
2022-08-05T01:40:31.538Z,100963.81
2022-08-05T01:42:34.717Z,100955.22
2022-08-05T01:44:38.053Z,100946.53
2022-08-05T01:46:46.361Z,100957.00
2022-08-05T01:48:49.977Z,100923.34
2022-08-05T01:50:53.236Z,100955.22
2022-08-05T01:52:59.342Z,100957.44
2022-08-05T01:55:05.648Z,100948.13
2022-08-05T01:58:10.549Z,100951.34
2022-08-05T01:59:34.095Z,100920.38
2022-08-05T02:01:39.993Z,100942.56
2022-08-05T02:03:46.749Z,100952.66
2022-08-05T02:05:50.044Z,100951.44
2022-08-05T02:08:00.305Z,100950.34
2022-08-05T02:10:05.219Z,100944.06
2022-08-05T02:12:21.549Z,100931.41
2022-08-05T02:14:58.668Z,100937.41
2022-08-05T02:18:28.825Z,100942.13
2022-08-05T02:19:51.177Z,100885.66
2022-08-05T02:22:05.527Z,100926.22
2022-08-05T02:24:14.191Z,100932.22
2022-08-05T02:26:26.515Z,100912.63
2022-08-05T02:28:35.233Z,100928.06
2022-08-05T02:30:51.898Z,100889.53
2022-08-05T02:32:59.487Z,100929.84
2022-08-05T02:35:14.182Z,100924.84
2022-08-05T02:37:17.430Z,100921.22
2022-08-05T02:39:21.708Z,100929.94
2022-08-05T02:41:28.322Z,100905.81
2022-08-05T02:43:32.998Z,100936.31
2022-08-05T02:45:52.346Z,100933.88
2022-08-05T02:48:06.999Z,100926.94
2022-08-05T02:50:15.133Z,100925.56
2022-08-05T02:52:29.978Z,100926.16
2022-08-05T02:54:36.976Z,100900.72
2022-08-05T02:56:41.848Z,100932.31
2022-08-05T02:58:52.720Z,100928.06
2022-08-05T03:00:56.725Z,100909.13
2022-08-05T03:03:00.525Z,100901.75
2022-08-05T03:05:02.957Z,100925.19
2022-08-05T03:07:06.635Z,100912.72
2022-08-05T03:09:36.344Z,100898.22
2022-08-05T03:11:54.456Z,100918.38
2022-08-05T03:14:03.195Z,100925.59
2022-08-05T03:16:05.570Z,100894.13
2022-08-05T03:18:11.406Z,100899.03
2022-08-05T03:20:13.837Z,100891.56
2022-08-05T03:22:19.087Z,100914.75
2022-08-05T03:24:35.025Z,100915.56
2022-08-05T03:26:37.988Z,100918.81
2022-08-05T03:28:39.840Z,100917.50
2022-08-05T03:30:43.268Z,100923.16
2022-08-05T03:32:45.052Z,100907.97
2022-08-05T03:34:51.258Z,100928.41
2022-08-05T03:36:53.562Z,100922.69
2022-08-05T03:38:55.932Z,100888.59
2022-08-05T03:40:58.103Z,100922.69
2022-08-05T03:43:01.504Z,100917.69
2022-08-05T03:45:23.575Z,100912.22
2022-08-05T03:47:26.179Z,100922.84
2022-08-05T03:49:51.393Z,100906.66
2022-08-05T03:52:48.289Z,100886.72
2022-08-05T03:55:50.220Z,100918.59
2022-08-05T03:57:00.004Z,100911.84
2022-08-05T03:59:08.653Z,100915.03
2022-08-05T04:01:13.011Z,100888.00
2022-08-05T04:03:28.572Z,100908.91
2022-08-05T04:05:34.711Z,100890.19
2022-08-05T04:07:57.144Z,100912.41
2022-08-05T04:10:01.682Z,100913.75
2022-08-05T04:12:05.356Z,100911.88
2022-08-05T04:14:29.414Z,100911.63
2022-08-05T04:16:33.726Z,100909.75
2022-08-05T04:18:36.334Z,100908.84
2022-08-05T04:20:38.206Z,100912.38
2022-08-05T04:22:43.647Z,100874.53
2022-08-05T04:24:52.734Z,100902.56
2022-08-05T04:26:54.894Z,100909.19
2022-08-05T04:29:01.030Z,100902.69
2022-08-05T04:31:10.524Z,100857.63
2022-08-05T04:33:14.011Z,100892.56
2022-08-05T04:35:19.597Z,100881.81
2022-08-05T04:37:22.934Z,100808.19
2022-08-05T04:39:43.459Z,100887.75
2022-08-05T04:41:46.137Z,100876.72
2022-08-05T04:43:52.903Z,100893.22
2022-08-05T04:45:55.764Z,100889.63
2022-08-05T04:48:16.534Z,100857.13
2022-08-05T04:50:28.946Z,100892.00
2022-08-05T04:52:39.317Z,100890.56
2022-08-05T04:54:41.099Z,100896.38
2022-08-05T04:56:43.562Z,100895.16
2022-08-05T04:58:45.704Z,100864.91
2022-08-05T05:00:50.746Z,100893.69
2022-08-05T05:02:52.785Z,100860.97
2022-08-05T05:05:01.713Z,100873.19
2022-08-05T05:07:04.384Z,100891.84
2022-08-05T05:09:14.116Z,100895.97
2022-08-05T05:11:19.275Z,100880.00
2022-08-05T05:13:22.618Z,100895.28
2022-08-05T05:15:57.488Z,100890.75
2022-08-05T05:17:57.008Z,100876.38
2022-08-05T05:19:59.655Z,100888.34
2022-08-05T05:22:03.677Z,100892.34
2022-08-05T05:24:23.534Z,100889.81
2022-08-05T05:26:46.429Z,100887.13
2022-08-05T05:28:49.816Z,100894.56
2022-08-05T05:30:51.759Z,100881.22
2022-08-05T05:32:53.798Z,100892.28
2022-08-05T05:34:55.705Z,100878.03
2022-08-05T05:36:59.499Z,100900.47
2022-08-05T05:39:03.733Z,100898.34
2022-08-05T05:41:07.624Z,100885.63
2022-08-05T05:43:09.609Z,100899.94
2022-08-05T05:45:11.910Z,100905.06
2022-08-05T05:47:22.125Z,100900.28
2022-08-05T05:49:24.260Z,100903.00
2022-08-05T05:51:27.905Z,100909.25
2022-08-05T05:53:29.879Z,100884.28
2022-08-05T05:56:01.377Z,100902.63
2022-08-05T05:58:05.147Z,100889.38
2022-08-05T06:00:13.198Z,100893.09
2022-08-05T06:02:15.088Z,100892.47
2022-08-05T06:04:18.740Z,100873.22
2022-08-05T06:06:23.910Z,100892.34
2022-08-05T06:08:32.778Z,100875.91
2022-08-05T06:10:36.582Z,100870.28
2022-08-05T06:12:42.223Z,100887.19
2022-08-05T06:14:44.191Z,100888.75
2022-08-05T06:16:46.496Z,100890.94
2022-08-05T06:18:48.335Z,100898.00
2022-08-05T06:20:55.437Z,100882.38
2022-08-05T06:22:58.765Z,100890.63
2022-08-05T06:25:00.580Z,100897.81
2022-08-05T06:27:04.029Z,100899.53
2022-08-05T06:29:42.948Z,100890.19
2022-08-05T06:31:30.599Z,100883.78
2022-08-05T06:34:06.044Z,100892.06
2022-08-05T06:36:05.656Z,100892.25
2022-08-05T06:38:11.973Z,100878.91
2022-08-05T06:40:18.130Z,100893.31
2022-08-05T06:42:23.062Z,100896.97
2022-08-05T06:44:27.316Z,100892.06
2022-08-05T06:46:30.156Z,100890.59
2022-08-05T06:48:53.466Z,100887.19
2022-08-05T06:50:54.129Z,100876.56
2022-08-05T06:52:58.656Z,100876.09
2022-08-05T06:55:06.960Z,100835.31
2022-08-05T06:58:03.044Z,100881.13
2022-08-05T06:59:30.602Z,100877.09
2022-08-05T07:01:42.499Z,100879.75
2022-08-05T07:03:44.396Z,100873.34
2022-08-05T07:05:46.587Z,100866.66
2022-08-05T07:07:48.541Z,100846.66
2022-08-05T07:09:55.664Z,100867.25
2022-08-05T07:12:00.799Z,100871.47
2022-08-05T07:14:02.687Z,100867.25
2022-08-05T07:16:06.338Z,100871.78
2022-08-05T07:18:20.273Z,100872.91
2022-08-05T07:20:33.476Z,100877.78
2022-08-05T07:22:36.024Z,100855.41
2022-08-05T07:24:43.993Z,100876.44
2022-08-05T07:26:54.544Z,100873.78
2022-08-05T07:28:56.488Z,100870.81
2022-08-05T07:31:01.742Z,100870.56
2022-08-05T07:33:10.014Z,100860.34
2022-08-05T07:36:03.456Z,100862.81
2022-08-05T07:37:36.198Z,100857.56
2022-08-05T07:40:04.601Z,100881.16
2022-08-05T07:42:08.619Z,100885.41
2022-08-05T07:44:19.184Z,100858.66
2022-08-05T07:46:24.674Z,100875.41
2022-08-05T07:48:36.584Z,100858.19
2022-08-05T07:50:49.586Z,100871.31
2022-08-05T07:52:51.760Z,100875.72
2022-08-05T07:54:55.205Z,100859.53
2022-08-05T07:57:14.569Z,100875.97
2022-08-05T07:59:23.144Z,100867.72
2022-08-05T08:01:33.293Z,100872.78
2022-08-05T08:03:44.590Z,100859.41
2022-08-05T08:05:49.732Z,100876.16
2022-08-05T08:08:00.115Z,100864.44
2022-08-05T08:10:02.610Z,100846.16
2022-08-05T08:12:13.618Z,100876.25
2022-08-05T08:14:22.374Z,100872.09
2022-08-05T08:16:35.618Z,100866.94
2022-08-05T08:18:49.944Z,100872.38
2022-08-05T08:21:02.548Z,100845.84
2022-08-05T08:23:05.674Z,100850.50
2022-08-05T08:25:16.222Z,100841.53
2022-08-05T08:27:19.655Z,100832.50
2022-08-05T08:30:04.118Z,100827.78
2022-08-05T08:31:43.555Z,100852.19
2022-08-05T08:33:45.940Z,100813.84
2022-08-05T08:36:07.823Z,100846.41
2022-08-05T08:38:16.317Z,100829.97
2022-08-05T08:40:18.509Z,100847.50
2022-08-05T08:42:34.608Z,100848.63
2022-08-05T08:45:18.598Z,100841.19
2022-08-05T08:47:47.179Z,100847.78
2022-08-05T08:50:23.236Z,100834.59
2022-08-05T08:52:05.655Z,100838.50
2022-08-05T08:54:08.287Z,100837.91
2022-08-05T08:56:10.652Z,100841.41
2022-08-05T08:58:15.856Z,100825.63
2022-08-05T09:00:19.426Z,100840.38
2022-08-05T09:02:24.226Z,100833.81
2022-08-05T09:04:30.183Z,100828.63
2022-08-05T09:06:32.699Z,100832.50
2022-08-05T09:08:40.138Z,100806.72
2022-08-05T09:10:42.664Z,100816.56
2022-08-05T09:12:51.099Z,100831.34
2022-08-05T09:15:03.984Z,100839.59
2022-08-05T09:17:40.967Z,100834.66
2022-08-05T09:19:36.822Z,100841.50
2022-08-05T09:22:23.427Z,100825.38
2022-08-05T09:24:16.973Z,100804.81
2022-08-05T09:26:20.820Z,100811.09
2022-08-05T09:28:31.922Z,100810.78
2022-08-05T09:30:35.078Z,100791.72
2022-08-05T09:32:46.024Z,100803.50
2022-08-05T09:34:53.450Z,100773.66
2022-08-05T09:36:59.434Z,100804.84
2022-08-05T09:39:18.261Z,100772.03
2022-08-05T09:41:24.453Z,100804.31
2022-08-05T09:43:40.750Z,100813.84
2022-08-05T09:46:07.083Z,100792.53
2022-08-05T09:48:32.331Z,100805.09
2022-08-05T09:50:44.777Z,100801.22
2022-08-05T09:52:47.125Z,100794.69
2022-08-05T09:54:55.759Z,100796.31
2022-08-05T09:57:01.795Z,100787.13
2022-08-05T09:59:17.286Z,100786.41
2022-08-05T10:01:31.990Z,100790.81
2022-08-05T10:03:56.742Z,100791.47
2022-08-05T10:06:15.844Z,100791.09
2022-08-05T10:08:37.282Z,100786.19
2022-08-05T10:10:48.223Z,100779.34
2022-08-05T10:12:55.423Z,100774.38
2022-08-05T10:15:21.920Z,100786.44
2022-08-05T10:17:37.324Z,100788.00
2022-08-05T10:20:02.954Z,100760.66
2022-08-05T10:22:04.387Z,100759.34
2022-08-05T10:24:09.209Z,100773.81
2022-08-05T10:26:14.165Z,100776.81
2022-08-05T10:28:29.005Z,100777.94
2022-08-05T10:31:20.751Z,100773.88
2022-08-05T10:33:02.203Z,100772.50
2022-08-05T10:35:05.002Z,100770.63
2022-08-05T10:37:07.262Z,100754.78
2022-08-05T10:39:25.078Z,100767.56
2022-08-05T10:41:47.386Z,100733.31
2022-08-05T10:43:57.471Z,100737.66
2022-08-05T10:46:07.124Z,100744.59
2022-08-05T10:48:57.396Z,100750.13
2022-08-05T10:51:21.845Z,100748.16
2022-08-05T10:53:45.101Z,100736.28
2022-08-05T10:56:25.369Z,100744.06
2022-08-05T10:58:47.818Z,100740.00
2022-08-05T11:00:55.036Z,100742.81
2022-08-05T11:03:24.924Z,100742.75
2022-08-05T11:05:29.333Z,100750.91
2022-08-05T11:08:02.787Z,100728.81
2022-08-05T11:10:03.960Z,100750.56
2022-08-05T11:12:37.436Z,100743.91
2022-08-05T11:15:11.382Z,100745.25
2022-08-05T11:17:59.100Z,100746.28
2022-08-05T11:20:16.961Z,100750.00
2022-08-05T11:22:43.593Z,100739.75
2022-08-05T11:26:06.279Z,100738.28
2022-08-05T11:28:00.726Z,100737.06
2022-08-05T11:30:02.941Z,100734.44
2022-08-05T11:32:30.810Z,100745.91
2022-08-05T11:34:37.941Z,100736.06
2022-08-05T11:36:42.947Z,100729.91
2022-08-05T11:38:50.941Z,100738.72
2022-08-05T11:41:35.309Z,100728.84
2022-08-05T11:44:04.513Z,100740.03
2022-08-05T11:46:27.144Z,100719.13
2022-08-05T11:48:11.520Z,100722.91
2022-08-05T11:50:14.354Z,100688.75
2022-08-05T11:52:29.465Z,100719.03
2022-08-05T11:54:34.484Z,100730.44
2022-08-05T11:56:50.071Z,100732.19
2022-08-05T11:58:52.874Z,100735.34
2022-08-05T12:01:08.347Z,100731.34
2022-08-05T12:03:29.374Z,100719.31
2022-08-05T12:05:39.657Z,100721.44
2022-08-05T12:08:10.444Z,100723.22
2022-08-05T12:10:09.176Z,100726.78
2022-08-05T12:12:13.568Z,100724.44
2022-08-05T12:14:15.745Z,100717.63
2022-08-05T12:16:20.001Z,100720.50
2022-08-05T12:18:34.805Z,100713.91
2022-08-05T12:20:41.449Z,100698.84
2022-08-05T12:22:43.285Z,100710.19
2022-08-05T12:24:50.449Z,100702.75
2022-08-05T12:26:53.933Z,100703.97
2022-08-05T12:28:55.709Z,100681.72
2022-08-05T12:30:58.448Z,100671.06
2022-08-05T12:33:06.890Z,100696.81
2022-08-05T12:35:39.698Z,100705.25
2022-08-05T12:37:46.921Z,100674.78
2022-08-05T12:39:51.917Z,100688.94
2022-08-05T12:41:59.682Z,100695.81
2022-08-05T12:44:11.617Z,100690.34
2022-08-05T12:46:29.764Z,100689.84
2022-08-05T12:48:39.568Z,100694.75
2022-08-05T12:50:41.836Z,100692.25
2022-08-05T12:52:57.900Z,100684.88
2022-08-05T12:54:59.861Z,100680.53
2022-08-05T12:57:09.247Z,100681.13
2022-08-05T12:59:13.926Z,100675.88
2022-08-05T13:02:01.886Z,100672.50
2022-08-05T13:03:42.184Z,100671.56
2022-08-05T13:05:47.465Z,100675.91
2022-08-05T13:08:00.582Z,100659.66
2022-08-05T13:10:03.139Z,100661.69
2022-08-05T13:12:16.290Z,100669.56
2022-08-05T13:14:20.204Z,100668.28
2022-08-05T13:16:25.109Z,100659.97
2022-08-05T13:18:37.763Z,100659.91
2022-08-05T13:20:40.503Z,100651.41
2022-08-05T13:22:47.032Z,100650.72
2022-08-05T13:24:58.101Z,100646.59
2022-08-05T13:27:02.789Z,100654.97
2022-08-05T13:29:05.626Z,100645.84
2022-08-05T13:31:10.950Z,100649.84
2022-08-05T13:34:20.383Z,100648.69
2022-08-05T13:35:47.611Z,100645.59
2022-08-05T13:37:55.460Z,100614.25
2022-08-05T13:40:16.297Z,100628.13
2022-08-05T13:42:20.438Z,100616.06
2022-08-05T13:44:22.171Z,100637.50
2022-08-05T13:48:58.835Z,100638.31
2022-08-05T13:51:07.788Z,100631.09
2022-08-05T13:53:15.733Z,100609.25
2022-08-05T13:55:41.139Z,100599.13
2022-08-05T13:57:51.011Z,100623.50
2022-08-05T13:59:57.082Z,100632.75
2022-08-05T14:02:02.450Z,100624.19
2022-08-05T14:04:04.177Z,100624.78
2022-08-05T14:06:25.852Z,100601.22
2022-08-05T14:08:32.546Z,100618.31
2022-08-05T14:10:38.716Z,100617.06
2022-08-05T14:12:55.371Z,100615.59
2022-08-05T14:14:57.246Z,100606.19
2022-08-05T14:17:00.000Z,100610.25
2022-08-05T14:19:04.366Z,100610.28
2022-08-05T14:21:24.065Z,100600.28
2022-08-05T14:23:33.658Z,100602.31
2022-08-05T14:25:45.065Z,100585.75
2022-08-05T14:27:47.627Z,100597.25
2022-08-05T14:29:51.332Z,100604.91
2022-08-05T14:32:12.416Z,100598.84
2022-08-05T14:34:16.264Z,100597.66
2022-08-05T14:36:21.292Z,100593.38
2022-08-05T14:38:31.833Z,100585.78
2022-08-05T14:40:34.932Z,100592.19
2022-08-05T14:42:36.811Z,100593.00
2022-08-05T14:44:39.894Z,100597.22
2022-08-05T14:46:43.432Z,100551.13
2022-08-05T14:48:49.326Z,100590.59
2022-08-05T14:50:51.888Z,100595.06
2022-08-05T14:52:57.851Z,100599.72
2022-08-05T14:55:00.293Z,100597.81
2022-08-05T14:57:05.324Z,100597.88
2022-08-05T14:59:11.651Z,100590.59
2022-08-05T15:01:16.088Z,100587.44
2022-08-05T15:03:18.603Z,100600.88
2022-08-05T15:05:30.176Z,100587.31
2022-08-05T15:08:05.328Z,100580.06
2022-08-05T15:10:09.645Z,100563.75
2022-08-05T15:12:16.979Z,100586.03
2022-08-05T15:14:33.964Z,100585.50
2022-08-05T15:16:38.945Z,100577.41
2022-08-05T15:18:42.123Z,100584.06
2022-08-05T15:20:49.034Z,100583.38
2022-08-05T15:22:54.330Z,100568.09
2022-08-05T15:24:56.948Z,100576.75
2022-08-05T15:26:58.697Z,100561.22
2022-08-05T15:29:02.445Z,100568.06
2022-08-05T15:31:05.636Z,100562.66
2022-08-05T15:33:07.537Z,100564.66
2022-08-05T15:35:12.403Z,100562.66
2022-08-05T15:37:17.206Z,100551.69
2022-08-05T15:40:42.746Z,100447.66
2022-08-05T15:41:57.836Z,100559.63
2022-08-05T15:44:00.983Z,100570.59
2022-08-05T15:46:06.173Z,100554.44
2022-08-05T15:48:07.921Z,100562.41
2022-08-05T15:50:15.431Z,100564.53
2022-08-05T15:52:51.825Z,100549.22
2022-08-05T15:54:41.333Z,100559.09
2022-08-05T15:56:45.022Z,100553.88
2022-08-05T15:58:47.627Z,100559.88
2022-08-05T16:00:51.037Z,100567.56
2022-08-05T16:03:06.268Z,100564.53
2022-08-05T16:05:09.575Z,100569.75
2022-08-05T16:07:13.227Z,100554.84
2022-08-05T16:09:15.219Z,100572.38
2022-08-05T16:11:17.364Z,100566.13
2022-08-05T16:13:19.368Z,100568.28
2022-08-05T16:15:32.754Z,100562.63
2022-08-05T16:17:35.747Z,100547.31
2022-08-05T16:20:04.584Z,100559.56
2022-08-05T16:22:02.653Z,100564.09
2022-08-05T16:24:05.726Z,100559.56
2022-08-05T16:26:14.534Z,100560.88
2022-08-05T16:28:16.595Z,100565.38
2022-08-05T16:30:25.477Z,100550.16
2022-08-05T16:32:29.650Z,100566.78
2022-08-05T16:34:31.737Z,100544.00
2022-08-05T16:36:33.742Z,100552.13
2022-08-05T16:38:35.642Z,100551.63
2022-08-05T16:40:37.727Z,100543.84
2022-08-05T16:42:40.177Z,100554.53
2022-08-05T16:44:41.943Z,100545.28
2022-08-05T16:46:55.793Z,100554.00
2022-08-05T16:48:58.277Z,100550.00
2022-08-05T16:51:00.189Z,100552.50
2022-08-05T16:53:12.442Z,100551.41
2022-08-05T16:55:24.492Z,100543.34
2022-08-05T16:57:30.143Z,100548.75
2022-08-05T16:59:49.586Z,100552.22
2022-08-05T17:02:04.848Z,100534.22
2022-08-05T17:04:07.029Z,100547.00
2022-08-05T17:06:09.013Z,100546.09
2022-08-05T17:08:13.389Z,100541.88
2022-08-05T17:10:15.691Z,100547.78
2022-08-05T17:12:17.717Z,100540.38
2022-08-05T17:14:36.862Z,100542.63
2022-08-05T17:16:39.677Z,100541.50
2022-08-05T17:18:41.651Z,100532.84
2022-08-05T17:20:44.133Z,100538.53
2022-08-05T17:22:45.987Z,100523.63
2022-08-05T17:25:00.066Z,100546.47
2022-08-05T17:27:02.247Z,100544.63
2022-08-05T17:29:04.202Z,100538.41
2022-08-05T17:31:24.206Z,100536.72
2022-08-05T17:33:38.840Z,100536.47
2022-08-05T17:36:09.153Z,100539.22
2022-08-05T17:38:12.003Z,100533.72
2022-08-05T17:40:22.232Z,100538.38
2022-08-05T17:42:30.161Z,100531.31
2022-08-05T17:44:34.353Z,100528.41
2022-08-05T17:46:37.165Z,100537.44
2022-08-05T17:48:38.944Z,100542.66
2022-08-05T17:50:40.994Z,100539.09
2022-08-05T17:52:52.718Z,100512.88
2022-08-05T17:54:56.771Z,100539.66
2022-08-05T17:56:58.834Z,100532.53
2022-08-05T17:59:00.869Z,100541.03
2022-08-05T18:01:09.550Z,100522.44
2022-08-05T18:03:12.339Z,100535.28
2022-08-05T18:05:28.042Z,100541.03
2022-08-05T18:07:40.874Z,100536.63
2022-08-05T18:09:59.926Z,100538.78
2022-08-05T18:12:02.980Z,100536.03
2022-08-05T18:14:06.646Z,100543.03
2022-08-05T18:16:08.839Z,100545.72
2022-08-05T18:18:15.622Z,100540.78
2022-08-05T18:20:18.638Z,100528.69
2022-08-05T18:22:21.891Z,100540.75
2022-08-05T18:24:26.537Z,100543.47
2022-08-05T18:26:32.067Z,100530.53
2022-08-05T18:28:35.004Z,100535.72
2022-08-05T18:30:39.049Z,100540.34
2022-08-05T18:32:42.085Z,100532.91
2022-08-05T18:34:55.720Z,100539.59
2022-08-05T18:36:59.173Z,100533.72
2022-08-05T18:39:01.903Z,100536.06
2022-08-05T18:41:57.573Z,100546.13
2022-08-05T18:43:27.435Z,100537.44
2022-08-05T18:45:41.486Z,100545.63
2022-08-05T18:47:44.446Z,100540.09
2022-08-05T18:49:58.173Z,100528.88
2022-08-05T18:52:05.456Z,100538.44
2022-08-05T18:54:09.667Z,100523.03
2022-08-05T18:56:12.563Z,100541.56
2022-08-05T18:58:16.262Z,100543.31
2022-08-05T19:00:19.933Z,100545.09
2022-08-05T19:02:28.183Z,100536.38
2022-08-05T19:05:01.612Z,100517.94
2022-08-05T19:07:02.195Z,100542.22
2022-08-05T19:09:04.602Z,100538.88
2022-08-05T19:11:09.224Z,100530.81
2022-08-05T19:13:15.918Z,100541.16
2022-08-05T19:15:57.909Z,100553.34
2022-08-05T19:18:08.306Z,100544.03
2022-08-05T19:20:01.913Z,100557.47
2022-08-05T19:22:05.079Z,100555.56
2022-08-05T19:24:12.599Z,100545.63
2022-08-05T19:26:15.056Z,100561.59
2022-08-05T19:28:18.215Z,100531.22
2022-08-05T19:30:20.584Z,100559.59
2022-08-05T19:32:23.078Z,100561.72
2022-08-05T19:34:28.290Z,100558.38
2022-08-05T19:36:32.200Z,100540.44
2022-08-05T19:38:36.004Z,100563.06
2022-08-05T19:40:38.544Z,100556.56
2022-08-05T19:42:41.189Z,100562.44
2022-08-05T19:44:46.617Z,100528.38
2022-08-05T19:46:50.243Z,100568.97
2022-08-05T19:48:52.152Z,100570.16
2022-08-05T19:50:54.045Z,100544.56
2022-08-05T19:52:55.876Z,100562.34
2022-08-05T19:54:57.585Z,100566.19
2022-08-05T19:57:09.491Z,100534.09
2022-08-05T19:59:51.073Z,100557.28
2022-08-05T20:01:34.621Z,100552.97
2022-08-05T20:03:40.990Z,100554.97
2022-08-05T20:05:51.213Z,100560.16
2022-08-05T20:07:57.972Z,100549.91
2022-08-05T20:10:01.079Z,100537.31
2022-08-05T20:12:03.189Z,100558.41
2022-08-05T20:14:12.864Z,100555.94
2022-08-05T20:16:19.516Z,100553.81
2022-08-05T20:18:33.902Z,100553.53
2022-08-05T20:20:38.727Z,100554.75
2022-08-05T20:22:41.474Z,100539.22
2022-08-05T20:24:46.033Z,100553.81
2022-08-05T20:26:48.258Z,100552.91
2022-08-05T20:28:52.780Z,100558.31
2022-08-05T20:30:54.826Z,100569.97
2022-08-05T20:32:56.570Z,100565.47
2022-08-05T20:34:58.477Z,100569.63
2022-08-05T20:37:00.330Z,100569.16
2022-08-05T20:39:03.792Z,100575.50
2022-08-05T20:41:08.177Z,100567.66
2022-08-05T20:43:10.140Z,100576.94
2022-08-05T20:45:12.495Z,100566.47
2022-08-05T20:47:14.509Z,100538.97
2022-08-05T20:49:24.152Z,100543.94
2022-08-05T20:51:27.570Z,100580.19
2022-08-05T20:53:36.530Z,100560.31
2022-08-05T20:55:56.640Z,100572.53
2022-08-05T20:58:04.551Z,100575.22
2022-08-05T21:00:21.009Z,100576.28
2022-08-05T21:02:29.726Z,100568.75
2022-08-05T21:04:31.457Z,100568.63
2022-08-05T21:06:33.391Z,100575.78
2022-08-05T21:08:41.665Z,100578.16
2022-08-05T21:10:48.970Z,100582.41
2022-08-05T21:13:08.186Z,100551.69
2022-08-05T21:15:13.127Z,100618.38
2022-08-05T21:17:14.977Z,100639.66
2022-08-05T21:19:17.350Z,100633.16
2022-08-05T21:21:24.541Z,100615.25
2022-08-05T21:23:26.360Z,100596.69
2022-08-05T21:25:34.006Z,100639.53
2022-08-05T21:27:38.877Z,100644.84
2022-08-05T21:29:40.992Z,100641.25
2022-08-05T21:31:42.716Z,100634.53
2022-08-05T21:33:47.470Z,100626.88
2022-08-05T21:35:58.550Z,100609.47
2022-08-05T21:38:00.832Z,100605.38
2022-08-05T21:40:06.345Z,100612.44
2022-08-05T21:42:19.778Z,100619.06
2022-08-05T21:44:36.797Z,100624.16
2022-08-05T21:46:39.043Z,100625.97
2022-08-05T21:48:41.382Z,100619.50
2022-08-05T21:50:53.224Z,100605.81
2022-08-05T21:52:58.943Z,100625.47
2022-08-05T21:55:07.296Z,100630.41
2022-08-05T21:57:30.231Z,100633.69
2022-08-05T21:59:48.158Z,100628.50
2022-08-05T22:01:54.584Z,100629.16
2022-08-05T22:03:56.556Z,100618.22
2022-08-05T22:05:58.625Z,100641.38
2022-08-05T22:08:02.532Z,100625.84
2022-08-05T22:10:06.185Z,100632.38
2022-08-05T22:12:10.840Z,100640.78
2022-08-05T22:14:33.461Z,100638.75
2022-08-05T22:16:51.824Z,100616.69
2022-08-05T22:18:58.457Z,100621.88
2022-08-05T22:21:00.741Z,100623.00
2022-08-05T22:23:16.749Z,100624.38
2022-08-05T22:25:27.305Z,100630.00
2022-08-05T22:28:10.258Z,100620.56
2022-08-05T22:29:54.293Z,100626.88
2022-08-05T22:32:02.630Z,100636.75
2022-08-05T22:34:04.731Z,100627.59
2022-08-05T22:36:07.834Z,100617.94
2022-08-05T22:38:12.083Z,100620.97
2022-08-05T22:40:16.578Z,100631.34
2022-08-05T22:42:26.276Z,100608.06
2022-08-05T22:44:29.439Z,100645.19
2022-08-05T22:46:31.265Z,100646.16
2022-08-05T22:48:34.567Z,100645.06
2022-08-05T22:50:37.352Z,100632.63
2022-08-05T22:52:52.525Z,100632.28
2022-08-05T22:54:54.607Z,100650.00
2022-08-05T22:56:57.058Z,100651.50
2022-08-05T22:59:03.149Z,100646.94
2022-08-05T23:01:21.721Z,100647.78
2022-08-05T23:03:57.737Z,100616.50
2022-08-05T23:06:01.335Z,100651.75
2022-08-05T23:08:04.144Z,100617.97
2022-08-05T23:10:06.757Z,100643.50
2022-08-05T23:12:09.625Z,100651.28
2022-08-05T23:14:12.699Z,100647.97
2022-08-05T23:16:14.551Z,100645.16
2022-08-05T23:18:35.003Z,100649.66
2022-08-05T23:20:43.078Z,100644.72
2022-08-05T23:22:47.570Z,100648.25
2022-08-05T23:24:51.404Z,100638.59
2022-08-05T23:26:53.502Z,100645.00
2022-08-05T23:28:55.296Z,100603.66
2022-08-05T23:31:16.298Z,100645.72
2022-08-05T23:33:26.141Z,100652.75
2022-08-05T23:35:41.148Z,100662.75
2022-08-05T23:37:43.680Z,100650.41
2022-08-05T23:39:54.354Z,100653.59
2022-08-05T23:41:56.836Z,100649.84
2022-08-05T23:44:08.674Z,100654.31
2022-08-05T23:46:19.994Z,100655.38
2022-08-05T23:48:23.696Z,100670.97
2022-08-05T23:50:28.114Z,100675.44
2022-08-05T23:52:36.160Z,100671.19
2022-08-05T23:54:51.470Z,100663.72
2022-08-05T23:56:54.796Z,100676.47
2022-08-05T23:59:00.901Z,100680.72
